sensor_id;sensor_type;location;lat;lon;timestamp;P1;durP1;ratioP1;P2;durP2;ratioP2
1753;SDS011;58380;48.312;9.246;2022-07-19T06:57:38;3.90;;;2.00;;
1753;SDS011;58380;48.312;9.246;2022-07-19T07:00:09;1.85;;;1.15;;
1753;SDS011;58380;48.312;9.246;2022-07-19T07:02:40;2.72;;;1.00;;
1753;SDS011;58380;48.312;9.246;2022-07-19T07:05:10;2.75;;;1.02;;
1753;SDS011;58380;48.312;9.246;2022-07-19T07:07:39;2.63;;;1.00;;
1753;SDS011;58380;48.312;9.246;2022-07-19T07:10:11;2.70;;;1.27;;
1753;SDS011;58380;48.312;9.246;2022-07-19T07:12:39;7.85;;;1.60;;
1753;SDS011;58380;48.312;9.246;2022-07-19T07:15:09;3.75;;;1.08;;
1753;SDS011;58380;48.312;9.246;2022-07-19T07:17:38;5.05;;;1.00;;
1753;SDS011;58380;48.312;9.246;2022-07-19T07:20:07;2.97;;;1.10;;
1753;SDS011;58380;48.312;9.246;2022-07-19T07:22:37;2.10;;;1.08;;
1753;SDS011;58380;48.312;9.246;2022-07-19T07:25:06;3.92;;;1.30;;
1753;SDS011;58380;48.312;9.246;2022-07-19T07:27:38;2.05;;;1.23;;
1753;SDS011;58380;48.312;9.246;2022-07-19T07:30:08;1.90;;;1.20;;
1753;SDS011;58380;48.312;9.246;2022-07-19T07:32:38;5.25;;;1.00;;
1753;SDS011;58380;48.312;9.246;2022-07-19T07:35:06;7.22;;;1.20;;
1753;SDS011;58380;48.312;9.246;2022-07-19T07:37:35;2.60;;;1.38;;
1753;SDS011;58380;48.312;9.246;2022-07-19T07:40:05;4.07;;;1.40;;
1753;SDS011;58380;48.312;9.246;2022-07-19T07:42:34;3.47;;;1.23;;
1753;SDS011;58380;48.312;9.246;2022-07-19T07:45:06;2.47;;;1.15;;
1753;SDS011;58380;48.312;9.246;2022-07-19T07:47:35;2.80;;;1.02;;
1753;SDS011;58380;48.312;9.246;2022-07-19T07:50:04;1.92;;;1.25;;
1753;SDS011;58380;48.312;9.246;2022-07-19T07:52:35;14.00;;;1.40;;
1753;SDS011;58380;48.312;9.246;2022-07-19T07:55:04;6.53;;;1.20;;
1753;SDS011;58380;48.312;9.246;2022-07-19T07:57:34;3.60;;;1.40;;
1753;SDS011;58380;48.312;9.246;2022-07-19T08:00:06;3.40;;;1.70;;
1753;SDS011;58380;48.312;9.246;2022-07-19T08:02:38;6.95;;;1.60;;
1753;SDS011;58380;48.312;9.246;2022-07-19T08:05:08;4.30;;;1.90;;
1753;SDS011;58380;48.312;9.246;2022-07-19T08:07:36;3.08;;;1.30;;
1753;SDS011;58380;48.312;9.246;2022-07-19T08:10:06;7.10;;;1.75;;
1753;SDS011;58380;48.312;9.246;2022-07-19T08:12:37;1.75;;;1.30;;
1753;SDS011;58380;48.312;9.246;2022-07-19T08:15:11;4.10;;;1.20;;
1753;SDS011;58380;48.312;9.246;2022-07-19T08:17:40;4.15;;;1.63;;
1753;SDS011;58380;48.312;9.246;2022-07-19T08:20:08;4.38;;;1.40;;
1753;SDS011;58380;48.312;9.246;2022-07-19T08:22:38;3.50;;;1.90;;
1753;SDS011;58380;48.312;9.246;2022-07-19T08:25:07;2.30;;;1.55;;
1753;SDS011;58380;48.312;9.246;2022-07-19T08:27:40;6.07;;;1.52;;
1753;SDS011;58380;48.312;9.246;2022-07-19T08:30:11;2.22;;;1.42;;
1753;SDS011;58380;48.312;9.246;2022-07-19T08:32:41;2.28;;;1.42;;
1753;SDS011;58380;48.312;9.246;2022-07-19T08:35:10;6.43;;;1.60;;
1753;SDS011;58380;48.312;9.246;2022-07-19T08:37:38;5.00;;;1.88;;
1753;SDS011;58380;48.312;9.246;2022-07-19T08:40:07;8.68;;;1.80;;
1753;SDS011;58380;48.312;9.246;2022-07-19T08:42:37;2.80;;;1.52;;
1753;SDS011;58380;48.312;9.246;2022-07-19T08:45:08;4.38;;;1.80;;
1753;SDS011;58380;48.312;9.246;2022-07-19T08:47:39;6.68;;;2.00;;
1753;SDS011;58380;48.312;9.246;2022-07-19T08:50:14;3.80;;;1.52;;
1753;SDS011;58380;48.312;9.246;2022-07-19T08:52:42;5.38;;;2.00;;
1753;SDS011;58380;48.312;9.246;2022-07-19T08:55:11;12.55;;;2.03;;
1753;SDS011;58380;48.312;9.246;2022-07-19T08:57:40;2.83;;;1.70;;
1753;SDS011;58380;48.312;9.246;2022-07-19T09:00:23;3.83;;;1.70;;
1753;SDS011;58380;48.312;9.246;2022-07-19T09:02:54;2.75;;;1.90;;
1753;SDS011;58380;48.312;9.246;2022-07-19T09:05:25;3.50;;;1.98;;
1753;SDS011;58380;48.312;9.246;2022-07-19T09:08:02;4.43;;;1.90;;
1753;SDS011;58380;48.312;9.246;2022-07-19T09:10:34;3.92;;;2.17;;
1753;SDS011;58380;48.312;9.246;2022-07-19T09:13:07;3.83;;;1.92;;
1753;SDS011;58380;48.312;9.246;2022-07-19T09:15:45;3.55;;;2.00;;
1753;SDS011;58380;48.312;9.246;2022-07-19T09:18:17;5.63;;;2.20;;
1753;SDS011;58380;48.312;9.246;2022-07-19T09:20:49;4.30;;;2.35;;
1753;SDS011;58380;48.312;9.246;2022-07-19T09:23:19;7.18;;;2.42;;
1753;SDS011;58380;48.312;9.246;2022-07-19T09:25:50;4.32;;;1.92;;
1753;SDS011;58380;48.312;9.246;2022-07-19T09:28:21;3.08;;;2.10;;
1753;SDS011;58380;48.312;9.246;2022-07-19T09:30:55;3.55;;;1.95;;
1753;SDS011;58380;48.312;9.246;2022-07-19T09:33:26;4.28;;;2.20;;
1753;SDS011;58380;48.312;9.246;2022-07-19T09:35:58;6.22;;;2.50;;
1753;SDS011;58380;48.312;9.246;2022-07-19T09:38:30;3.05;;;1.83;;
1753;SDS011;58380;48.312;9.246;2022-07-19T09:41:10;5.28;;;2.05;;
1753;SDS011;58380;48.312;9.246;2022-07-19T09:43:49;6.65;;;2.42;;
1753;SDS011;58380;48.312;9.246;2022-07-19T09:46:29;4.05;;;2.42;;
1753;SDS011;58380;48.312;9.246;2022-07-19T09:49:04;4.35;;;1.98;;
1753;SDS011;58380;48.312;9.246;2022-07-19T09:51:36;4.28;;;2.25;;
1753;SDS011;58380;48.312;9.246;2022-07-19T09:54:07;3.63;;;1.75;;
1753;SDS011;58380;48.312;9.246;2022-07-19T09:56:39;3.97;;;1.85;;
1753;SDS011;58380;48.312;9.246;2022-07-19T09:59:11;2.80;;;1.85;;
1753;SDS011;58380;48.312;9.246;2022-07-19T10:01:43;5.15;;;2.20;;
1753;SDS011;58380;48.312;9.246;2022-07-19T10:04:15;5.35;;;2.25;;
1753;SDS011;58380;48.312;9.246;2022-07-19T10:06:49;4.50;;;2.15;;
1753;SDS011;58380;48.312;9.246;2022-07-19T10:09:28;6.13;;;2.10;;
1753;SDS011;58380;48.312;9.246;2022-07-19T10:11:59;8.63;;;2.13;;
1753;SDS011;58380;48.312;9.246;2022-07-19T10:14:28;5.65;;;1.95;;
1753;SDS011;58380;48.312;9.246;2022-07-19T10:17:08;3.90;;;1.85;;
1753;SDS011;58380;48.312;9.246;2022-07-19T10:19:49;2.95;;;1.83;;
1753;SDS011;58380;48.312;9.246;2022-07-19T10:22:18;4.50;;;1.77;;
1753;SDS011;58380;48.312;9.246;2022-07-19T10:24:52;6.40;;;2.15;;
1753;SDS011;58380;48.312;9.246;2022-07-19T10:27:35;4.72;;;1.90;;
1753;SDS011;58380;48.312;9.246;2022-07-19T10:30:17;3.60;;;2.05;;
1753;SDS011;58380;48.312;9.246;2022-07-19T10:32:55;3.53;;;1.63;;
1753;SDS011;58380;48.312;9.246;2022-07-19T10:35:27;5.15;;;1.67;;
1753;SDS011;58380;48.312;9.246;2022-07-19T10:38:08;2.42;;;1.23;;
1753;SDS011;58380;48.312;9.246;2022-07-19T10:40:39;3.08;;;1.30;;
1753;SDS011;58380;48.312;9.246;2022-07-19T10:43:11;2.30;;;1.25;;
1753;SDS011;58380;48.312;9.246;2022-07-19T10:45:41;4.22;;;1.45;;
1753;SDS011;58380;48.312;9.246;2022-07-19T10:48:37;2.75;;;1.52;;
1753;SDS011;58380;48.312;9.246;2022-07-19T10:51:08;4.68;;;2.00;;
1753;SDS011;58380;48.312;9.246;2022-07-19T10:56:29;3.60;;;1.40;;
1753;SDS011;58380;48.312;9.246;2022-07-19T10:59:18;2.92;;;1.40;;
1753;SDS011;58380;48.312;9.246;2022-07-19T11:02:03;4.25;;;1.30;;
1753;SDS011;58380;48.312;9.246;2022-07-19T11:04:35;2.13;;;1.27;;
1753;SDS011;58380;48.312;9.246;2022-07-19T11:07:10;2.88;;;1.45;;
1753;SDS011;58380;48.312;9.246;2022-07-19T11:09:53;6.97;;;1.52;;
1753;SDS011;58380;48.312;9.246;2022-07-19T11:12:26;3.95;;;1.65;;
1753;SDS011;58380;48.312;9.246;2022-07-19T11:14:58;2.42;;;1.30;;
1753;SDS011;58380;48.312;9.246;2022-07-19T11:17:31;3.72;;;1.42;;
1753;SDS011;58380;48.312;9.246;2022-07-19T11:20:03;2.47;;;1.40;;
1753;SDS011;58380;48.312;9.246;2022-07-19T11:22:39;2.72;;;1.30;;
1753;SDS011;58380;48.312;9.246;2022-07-19T11:25:10;3.63;;;1.83;;
1753;SDS011;58380;48.312;9.246;2022-07-19T11:27:43;3.65;;;1.67;;
1753;SDS011;58380;48.312;9.246;2022-07-19T11:30:14;2.63;;;1.35;;
1753;SDS011;58380;48.312;9.246;2022-07-19T11:32:43;1.83;;;1.23;;
1753;SDS011;58380;48.312;9.246;2022-07-19T11:35:23;3.70;;;1.30;;
1753;SDS011;58380;48.312;9.246;2022-07-19T11:37:55;4.22;;;1.75;;
1753;SDS011;58380;48.312;9.246;2022-07-19T11:40:33;4.50;;;1.73;;
1753;SDS011;58380;48.312;9.246;2022-07-19T11:43:04;7.22;;;1.80;;
1753;SDS011;58380;48.312;9.246;2022-07-19T11:45:42;3.80;;;1.52;;
1753;SDS011;58380;48.312;9.246;2022-07-19T11:48:22;3.22;;;1.67;;
1753;SDS011;58380;48.312;9.246;2022-07-19T11:51:02;4.53;;;1.60;;
1753;SDS011;58380;48.312;9.246;2022-07-19T11:53:35;4.47;;;1.60;;
1753;SDS011;58380;48.312;9.246;2022-07-19T11:56:15;4.57;;;1.88;;
1753;SDS011;58380;48.312;9.246;2022-07-19T11:58:46;3.42;;;2.13;;
1753;SDS011;58380;48.312;9.246;2022-07-19T12:01:16;4.28;;;2.08;;
1753;SDS011;58380;48.312;9.246;2022-07-19T12:04:00;4.85;;;1.98;;
1753;SDS011;58380;48.312;9.246;2022-07-19T12:06:40;4.45;;;1.73;;
1753;SDS011;58380;48.312;9.246;2022-07-19T12:09:11;3.45;;;1.70;;
1753;SDS011;58380;48.312;9.246;2022-07-19T12:11:44;6.93;;;2.20;;
1753;SDS011;58380;48.312;9.246;2022-07-19T12:14:20;7.35;;;2.05;;
1753;SDS011;58380;48.312;9.246;2022-07-19T12:17:08;3.28;;;2.00;;
1753;SDS011;58380;48.312;9.246;2022-07-19T12:19:46;3.55;;;2.00;;
1753;SDS011;58380;48.312;9.246;2022-07-19T12:22:32;5.15;;;2.53;;
1753;SDS011;58380;48.312;9.246;2022-07-19T12:25:08;5.60;;;2.00;;
1753;SDS011;58380;48.312;9.246;2022-07-19T12:27:37;6.05;;;2.30;;
1753;SDS011;58380;48.312;9.246;2022-07-19T12:30:17;5.88;;;2.30;;
1753;SDS011;58380;48.312;9.246;2022-07-19T12:32:47;4.22;;;1.90;;
1753;SDS011;58380;48.312;9.246;2022-07-19T12:35:16;5.93;;;2.00;;
1753;SDS011;58380;48.312;9.246;2022-07-19T12:37:49;4.57;;;1.90;;
1753;SDS011;58380;48.312;9.246;2022-07-19T12:40:30;6.45;;;2.10;;
1753;SDS011;58380;48.312;9.246;2022-07-19T12:43:04;6.35;;;2.35;;
1753;SDS011;58380;48.312;9.246;2022-07-19T12:45:34;4.80;;;2.40;;
1753;SDS011;58380;48.312;9.246;2022-07-19T12:48:06;5.53;;;2.30;;
1753;SDS011;58380;48.312;9.246;2022-07-19T12:50:37;4.30;;;2.20;;
1753;SDS011;58380;48.312;9.246;2022-07-19T12:53:12;5.78;;;2.10;;
1753;SDS011;58380;48.312;9.246;2022-07-19T12:55:43;8.43;;;2.10;;
1753;SDS011;58380;48.312;9.246;2022-07-19T12:58:13;5.82;;;2.00;;
1753;SDS011;58380;48.312;9.246;2022-07-19T13:01:04;7.10;;;2.10;;
1753;SDS011;58380;48.312;9.246;2022-07-19T13:03:33;6.20;;;2.17;;
1753;SDS011;58380;48.312;9.246;2022-07-19T13:06:02;4.45;;;2.40;;
1753;SDS011;58380;48.312;9.246;2022-07-19T13:08:34;4.15;;;2.13;;
1753;SDS011;58380;48.312;9.246;2022-07-19T13:11:03;5.93;;;2.10;;
1753;SDS011;58380;48.312;9.246;2022-07-19T13:13:32;4.07;;;2.45;;
1753;SDS011;58380;48.312;9.246;2022-07-19T13:16:01;8.65;;;2.30;;
1753;SDS011;58380;48.312;9.246;2022-07-19T13:18:30;4.43;;;2.13;;
1753;SDS011;58380;48.312;9.246;2022-07-19T13:20:59;8.73;;;2.42;;
1753;SDS011;58380;48.312;9.246;2022-07-19T13:23:29;4.75;;;2.10;;
1753;SDS011;58380;48.312;9.246;2022-07-19T13:26:03;4.85;;;2.20;;
1753;SDS011;58380;48.312;9.246;2022-07-19T13:28:34;6.07;;;2.17;;
1753;SDS011;58380;48.312;9.246;2022-07-19T13:31:06;7.47;;;2.65;;
1753;SDS011;58380;48.312;9.246;2022-07-19T13:33:39;3.88;;;2.20;;
1753;SDS011;58380;48.312;9.246;2022-07-19T13:36:08;4.47;;;2.13;;
1753;SDS011;58380;48.312;9.246;2022-07-19T13:38:37;5.90;;;2.17;;
1753;SDS011;58380;48.312;9.246;2022-07-19T13:41:09;5.45;;;2.03;;
1753;SDS011;58380;48.312;9.246;2022-07-19T13:43:38;5.55;;;2.03;;
1753;SDS011;58380;48.312;9.246;2022-07-19T13:46:07;5.07;;;2.10;;
1753;SDS011;58380;48.312;9.246;2022-07-19T13:48:36;7.35;;;2.30;;
1753;SDS011;58380;48.312;9.246;2022-07-19T13:51:06;4.78;;;2.08;;
1753;SDS011;58380;48.312;9.246;2022-07-19T13:53:35;8.05;;;2.45;;
1753;SDS011;58380;48.312;9.246;2022-07-19T13:56:05;5.68;;;2.30;;
1753;SDS011;58380;48.312;9.246;2022-07-19T13:58:37;5.57;;;2.25;;
1753;SDS011;58380;48.312;9.246;2022-07-19T14:01:06;5.20;;;2.53;;
1753;SDS011;58380;48.312;9.246;2022-07-19T14:03:38;4.53;;;1.98;;
1753;SDS011;58380;48.312;9.246;2022-07-19T14:06:07;7.35;;;2.50;;
1753;SDS011;58380;48.312;9.246;2022-07-19T14:08:36;4.05;;;2.03;;
1753;SDS011;58380;48.312;9.246;2022-07-19T14:11:05;5.03;;;1.77;;
1753;SDS011;58380;48.312;9.246;2022-07-19T14:13:38;7.20;;;2.42;;
1753;SDS011;58380;48.312;9.246;2022-07-19T14:16:07;5.93;;;2.38;;
1753;SDS011;58380;48.312;9.246;2022-07-19T14:18:36;8.50;;;2.40;;
1753;SDS011;58380;48.312;9.246;2022-07-19T14:21:04;6.88;;;2.50;;
1753;SDS011;58380;48.312;9.246;2022-07-19T14:23:33;4.93;;;2.42;;
1753;SDS011;58380;48.312;9.246;2022-07-19T14:26:02;6.10;;;2.42;;
1753;SDS011;58380;48.312;9.246;2022-07-19T14:28:30;7.15;;;2.38;;
1753;SDS011;58380;48.312;9.246;2022-07-19T14:31:02;4.45;;;2.20;;
1753;SDS011;58380;48.312;9.246;2022-07-19T14:33:32;5.50;;;2.00;;
1753;SDS011;58380;48.312;9.246;2022-07-19T14:36:00;7.68;;;2.15;;
1753;SDS011;58380;48.312;9.246;2022-07-19T14:38:29;8.02;;;2.55;;
1753;SDS011;58380;48.312;9.246;2022-07-19T14:40:57;5.47;;;2.38;;
1753;SDS011;58380;48.312;9.246;2022-07-19T14:43:26;2.90;;;2.13;;
1753;SDS011;58380;48.312;9.246;2022-07-19T14:45:55;4.07;;;2.28;;
1753;SDS011;58380;48.312;9.246;2022-07-19T14:48:26;3.90;;;2.20;;
1753;SDS011;58380;48.312;9.246;2022-07-19T14:50:54;5.47;;;2.40;;
1753;SDS011;58380;48.312;9.246;2022-07-19T14:53:23;6.00;;;2.28;;
1753;SDS011;58380;48.312;9.246;2022-07-19T14:55:52;4.63;;;2.10;;
1753;SDS011;58380;48.312;9.246;2022-07-19T14:58:20;5.57;;;2.47;;
1753;SDS011;58380;48.312;9.246;2022-07-19T15:00:49;5.15;;;2.10;;
1753;SDS011;58380;48.312;9.246;2022-07-19T15:03:17;5.57;;;2.00;;
1753;SDS011;58380;48.312;9.246;2022-07-19T15:05:48;6.32;;;2.13;;
1753;SDS011;58380;48.312;9.246;2022-07-19T15:08:17;6.10;;;2.30;;
1753;SDS011;58380;48.312;9.246;2022-07-19T15:10:46;5.13;;;2.28;;
1753;SDS011;58380;48.312;9.246;2022-07-19T15:13:15;5.72;;;2.58;;
1753;SDS011;58380;48.312;9.246;2022-07-19T15:15:43;4.65;;;1.90;;
1753;SDS011;58380;48.312;9.246;2022-07-19T15:18:12;5.45;;;2.20;;
1753;SDS011;58380;48.312;9.246;2022-07-19T15:20:40;4.45;;;1.85;;
1753;SDS011;58380;48.312;9.246;2022-07-19T15:23:12;7.72;;;2.30;;
1753;SDS011;58380;48.312;9.246;2022-07-19T15:25:40;5.45;;;2.55;;
1753;SDS011;58380;48.312;9.246;2022-07-19T15:28:09;10.45;;;2.20;;
1753;SDS011;58380;48.312;9.246;2022-07-19T15:30:38;8.75;;;2.10;;
1753;SDS011;58380;48.312;9.246;2022-07-19T15:33:09;5.82;;;2.25;;
1753;SDS011;58380;48.312;9.246;2022-07-19T15:35:37;5.63;;;2.15;;
1753;SDS011;58380;48.312;9.246;2022-07-19T15:38:06;4.88;;;2.25;;
1753;SDS011;58380;48.312;9.246;2022-07-19T15:40:37;4.63;;;2.00;;
1753;SDS011;58380;48.312;9.246;2022-07-19T15:43:06;7.72;;;2.55;;
1753;SDS011;58380;48.312;9.246;2022-07-19T15:45:34;7.50;;;2.25;;
1753;SDS011;58380;48.312;9.246;2022-07-19T15:48:03;3.10;;;1.90;;
1753;SDS011;58380;48.312;9.246;2022-07-19T15:50:31;5.10;;;2.20;;
1753;SDS011;58380;48.312;9.246;2022-07-19T15:53:02;5.13;;;2.13;;
1753;SDS011;58380;48.312;9.246;2022-07-19T15:58:33;7.68;;;2.17;;
1753;SDS011;58380;48.312;9.246;2022-07-19T16:01:01;3.90;;;2.17;;
1753;SDS011;58380;48.312;9.246;2022-07-19T16:03:30;3.40;;;2.25;;
1753;SDS011;58380;48.312;9.246;2022-07-19T16:06:00;6.05;;;2.35;;
1753;SDS011;58380;48.312;9.246;2022-07-19T16:08:29;5.68;;;2.00;;
1753;SDS011;58380;48.312;9.246;2022-07-19T16:10:58;5.72;;;2.38;;
1753;SDS011;58380;48.312;9.246;2022-07-19T16:13:29;5.35;;;2.20;;
1753;SDS011;58380;48.312;9.246;2022-07-19T16:15:58;8.50;;;2.33;;
1753;SDS011;58380;48.312;9.246;2022-07-19T16:18:27;5.38;;;2.40;;
1753;SDS011;58380;48.312;9.246;2022-07-19T16:20:58;5.82;;;2.30;;
1753;SDS011;58380;48.312;9.246;2022-07-19T16:23:26;5.47;;;1.98;;
1753;SDS011;58380;48.312;9.246;2022-07-19T16:25:55;6.68;;;2.42;;
1753;SDS011;58380;48.312;9.246;2022-07-19T16:28:23;8.63;;;2.30;;
1753;SDS011;58380;48.312;9.246;2022-07-19T16:30:55;8.85;;;2.40;;
1753;SDS011;58380;48.312;9.246;2022-07-19T16:33:23;7.45;;;2.03;;
1753;SDS011;58380;48.312;9.246;2022-07-19T16:35:52;4.75;;;2.35;;
1753;SDS011;58380;48.312;9.246;2022-07-19T16:38:21;7.28;;;2.40;;
1753;SDS011;58380;48.312;9.246;2022-07-19T16:40:49;9.05;;;2.65;;
1753;SDS011;58380;48.312;9.246;2022-07-19T16:43:18;5.03;;;2.33;;
1753;SDS011;58380;48.312;9.246;2022-07-19T16:45:46;10.60;;;2.60;;
1753;SDS011;58380;48.312;9.246;2022-07-19T16:48:18;4.57;;;2.17;;
1753;SDS011;58380;48.312;9.246;2022-07-19T16:50:46;6.47;;;2.45;;
1753;SDS011;58380;48.312;9.246;2022-07-19T16:53:15;4.28;;;2.20;;
1753;SDS011;58380;48.312;9.246;2022-07-19T16:55:45;5.18;;;2.20;;
1753;SDS011;58380;48.312;9.246;2022-07-19T16:58:14;5.90;;;2.60;;
1753;SDS011;58380;48.312;9.246;2022-07-19T17:00:45;7.40;;;2.55;;
1753;SDS011;58380;48.312;9.246;2022-07-19T17:03:18;19.23;;;2.10;;
1753;SDS011;58380;48.312;9.246;2022-07-19T17:05:46;6.05;;;2.13;;
1753;SDS011;58380;48.312;9.246;2022-07-19T17:08:15;6.43;;;2.13;;
1753;SDS011;58380;48.312;9.246;2022-07-19T17:10:44;4.65;;;2.40;;
1753;SDS011;58380;48.312;9.246;2022-07-19T17:13:14;5.40;;;2.40;;
1753;SDS011;58380;48.312;9.246;2022-07-19T17:15:44;6.55;;;2.45;;
1753;SDS011;58380;48.312;9.246;2022-07-19T17:18:12;4.30;;;2.28;;
1753;SDS011;58380;48.312;9.246;2022-07-19T17:20:44;4.53;;;2.40;;
1753;SDS011;58380;48.312;9.246;2022-07-19T17:23:13;4.32;;;2.30;;
1753;SDS011;58380;48.312;9.246;2022-07-19T17:25:41;8.98;;;2.10;;
1753;SDS011;58380;48.312;9.246;2022-07-19T17:28:10;6.10;;;2.17;;
1753;SDS011;58380;48.312;9.246;2022-07-19T17:30:39;7.20;;;2.08;;
1753;SDS011;58380;48.312;9.246;2022-07-19T17:33:07;8.13;;;2.20;;
1753;SDS011;58380;48.312;9.246;2022-07-19T17:35:36;7.15;;;2.70;;
1753;SDS011;58380;48.312;9.246;2022-07-19T17:38:08;6.03;;;2.35;;
1753;SDS011;58380;48.312;9.246;2022-07-19T17:40:37;4.85;;;1.95;;
1753;SDS011;58380;48.312;9.246;2022-07-19T17:43:05;3.30;;;2.00;;
1753;SDS011;58380;48.312;9.246;2022-07-19T17:45:34;3.53;;;2.10;;
1753;SDS011;58380;48.312;9.246;2022-07-19T17:48:03;5.03;;;2.28;;
1753;SDS011;58380;48.312;9.246;2022-07-19T17:50:32;6.57;;;2.15;;
1753;SDS011;58380;48.312;9.246;2022-07-19T17:53:01;9.05;;;2.25;;
1753;SDS011;58380;48.312;9.246;2022-07-19T17:55:32;3.97;;;2.30;;
1753;SDS011;58380;48.312;9.246;2022-07-19T17:58:01;6.57;;;2.50;;
1753;SDS011;58380;48.312;9.246;2022-07-19T18:00:30;4.93;;;2.53;;
1753;SDS011;58380;48.312;9.246;2022-07-19T18:02:59;4.13;;;2.60;;
1753;SDS011;58380;48.312;9.246;2022-07-19T18:05:27;5.05;;;2.50;;
1753;SDS011;58380;48.312;9.246;2022-07-19T18:07:56;7.80;;;2.83;;
1753;SDS011;58380;48.312;9.246;2022-07-19T18:10:24;6.82;;;2.63;;
1753;SDS011;58380;48.312;9.246;2022-07-19T18:12:56;5.28;;;2.78;;
1753;SDS011;58380;48.312;9.246;2022-07-19T18:15:25;7.40;;;2.55;;
1753;SDS011;58380;48.312;9.246;2022-07-19T18:17:54;6.40;;;2.67;;
1753;SDS011;58380;48.312;9.246;2022-07-19T18:20:22;5.18;;;2.20;;
1753;SDS011;58380;48.312;9.246;2022-07-19T18:22:51;4.95;;;2.67;;
1753;SDS011;58380;48.312;9.246;2022-07-19T18:25:19;3.45;;;2.50;;
1753;SDS011;58380;48.312;9.246;2022-07-19T18:27:48;6.68;;;2.47;;
1753;SDS011;58380;48.312;9.246;2022-07-19T18:30:19;5.78;;;2.70;;
1753;SDS011;58380;48.312;9.246;2022-07-19T18:32:48;3.88;;;2.72;;
1753;SDS011;58380;48.312;9.246;2022-07-19T18:35:16;4.32;;;2.55;;
1753;SDS011;58380;48.312;9.246;2022-07-19T18:37:45;4.93;;;2.63;;
1753;SDS011;58380;48.312;9.246;2022-07-19T18:40:14;8.70;;;3.03;;
1753;SDS011;58380;48.312;9.246;2022-07-19T18:42:43;5.85;;;2.78;;
1753;SDS011;58380;48.312;9.246;2022-07-19T18:45:11;6.45;;;2.72;;
1753;SDS011;58380;48.312;9.246;2022-07-19T18:47:43;6.97;;;2.42;;
1753;SDS011;58380;48.312;9.246;2022-07-19T18:50:13;7.60;;;2.80;;
1753;SDS011;58380;48.312;9.246;2022-07-19T18:52:42;7.05;;;3.00;;
1753;SDS011;58380;48.312;9.246;2022-07-19T18:55:10;4.63;;;2.53;;
1753;SDS011;58380;48.312;9.246;2022-07-19T18:57:39;6.78;;;2.67;;
1753;SDS011;58380;48.312;9.246;2022-07-19T19:00:09;7.53;;;2.50;;
1753;SDS011;58380;48.312;9.246;2022-07-19T19:02:43;4.47;;;2.67;;
1753;SDS011;58380;48.312;9.246;2022-07-19T19:05:14;5.65;;;2.33;;
1753;SDS011;58380;48.312;9.246;2022-07-19T19:07:43;7.80;;;2.65;;
1753;SDS011;58380;48.312;9.246;2022-07-19T19:10:13;3.88;;;2.30;;
1753;SDS011;58380;48.312;9.246;2022-07-19T19:12:42;4.63;;;2.88;;
1753;SDS011;58380;48.312;9.246;2022-07-19T19:15:11;10.57;;;2.50;;
1753;SDS011;58380;48.312;9.246;2022-07-19T19:17:39;6.93;;;3.10;;
1753;SDS011;58380;48.312;9.246;2022-07-19T19:20:11;7.13;;;3.00;;
1753;SDS011;58380;48.312;9.246;2022-07-19T19:22:40;5.95;;;2.75;;
1753;SDS011;58380;48.312;9.246;2022-07-19T19:25:08;5.32;;;2.83;;
1753;SDS011;58380;48.312;9.246;2022-07-19T19:27:38;8.65;;;3.05;;
1753;SDS011;58380;48.312;9.246;2022-07-19T19:30:08;8.13;;;2.90;;
1753;SDS011;58380;48.312;9.246;2022-07-19T19:32:39;8.50;;;2.95;;
1753;SDS011;58380;48.312;9.246;2022-07-19T19:35:10;6.95;;;2.55;;
1753;SDS011;58380;48.312;9.246;2022-07-19T19:37:39;7.57;;;2.83;;
1753;SDS011;58380;48.312;9.246;2022-07-19T19:40:08;9.85;;;2.95;;
1753;SDS011;58380;48.312;9.246;2022-07-19T19:42:38;12.77;;;3.22;;
1753;SDS011;58380;48.312;9.246;2022-07-19T19:45:07;10.20;;;3.42;;
1753;SDS011;58380;48.312;9.246;2022-07-19T19:47:38;7.65;;;3.13;;
1753;SDS011;58380;48.312;9.246;2022-07-19T19:50:07;6.32;;;3.63;;
1753;SDS011;58380;48.312;9.246;2022-07-19T19:52:40;6.95;;;3.70;;
1753;SDS011;58380;48.312;9.246;2022-07-19T19:55:09;9.90;;;3.70;;
1753;SDS011;58380;48.312;9.246;2022-07-19T19:57:38;13.65;;;3.75;;
1753;SDS011;58380;48.312;9.246;2022-07-19T20:00:09;10.98;;;3.90;;
1753;SDS011;58380;48.312;9.246;2022-07-19T20:02:40;11.60;;;3.63;;
1753;SDS011;58380;48.312;9.246;2022-07-19T20:05:14;7.80;;;3.45;;
1753;SDS011;58380;48.312;9.246;2022-07-19T20:07:44;7.32;;;3.70;;
1753;SDS011;58380;48.312;9.246;2022-07-19T20:10:14;7.88;;;3.60;;
1753;SDS011;58380;48.312;9.246;2022-07-19T20:12:44;5.82;;;3.55;;
1753;SDS011;58380;48.312;9.246;2022-07-19T20:15:14;8.18;;;3.42;;
1753;SDS011;58380;48.312;9.246;2022-07-19T20:17:43;8.52;;;3.90;;
1753;SDS011;58380;48.312;9.246;2022-07-19T20:20:15;8.63;;;3.80;;
1753;SDS011;58380;48.312;9.246;2022-07-19T20:22:44;8.65;;;3.65;;
1753;SDS011;58380;48.312;9.246;2022-07-19T20:25:12;9.38;;;4.10;;
1753;SDS011;58380;48.312;9.246;2022-07-19T20:27:41;7.05;;;3.78;;
1753;SDS011;58380;48.312;9.246;2022-07-19T20:30:10;10.10;;;4.03;;
1753;SDS011;58380;48.312;9.246;2022-07-19T20:32:39;15.48;;;4.47;;
1753;SDS011;58380;48.312;9.246;2022-07-19T20:35:08;10.63;;;4.50;;
1753;SDS011;58380;48.312;9.246;2022-07-19T20:37:39;9.88;;;4.15;;
1753;SDS011;58380;48.312;9.246;2022-07-19T20:40:09;9.00;;;4.55;;
1753;SDS011;58380;48.312;9.246;2022-07-19T20:42:40;11.52;;;4.63;;
1753;SDS011;58380;48.312;9.246;2022-07-19T20:45:09;6.90;;;4.40;;
1753;SDS011;58380;48.312;9.246;2022-07-19T20:47:41;10.25;;;4.70;;
1753;SDS011;58380;48.312;9.246;2022-07-19T20:50:10;9.60;;;4.20;;
1753;SDS011;58380;48.312;9.246;2022-07-19T20:52:41;11.07;;;4.43;;
1753;SDS011;58380;48.312;9.246;2022-07-19T20:55:10;7.82;;;4.32;;
1753;SDS011;58380;48.312;9.246;2022-07-19T20:57:39;14.35;;;4.60;;
1753;SDS011;58380;48.312;9.246;2022-07-19T21:00:08;7.35;;;4.50;;
1753;SDS011;58380;48.312;9.246;2022-07-19T21:02:38;11.13;;;4.85;;
1753;SDS011;58380;48.312;9.246;2022-07-19T21:05:08;9.32;;;4.63;;
1753;SDS011;58380;48.312;9.246;2022-07-19T21:07:37;9.13;;;4.50;;
1753;SDS011;58380;48.312;9.246;2022-07-19T21:10:08;6.55;;;4.28;;
1753;SDS011;58380;48.312;9.246;2022-07-19T21:12:37;10.63;;;4.60;;
1753;SDS011;58380;48.312;9.246;2022-07-19T21:15:06;12.55;;;4.55;;
1753;SDS011;58380;48.312;9.246;2022-07-19T21:17:37;7.88;;;4.88;;
1753;SDS011;58380;48.312;9.246;2022-07-19T21:20:06;10.45;;;4.88;;
1753;SDS011;58380;48.312;9.246;2022-07-19T21:22:36;8.50;;;4.20;;
1753;SDS011;58380;48.312;9.246;2022-07-19T21:25:08;7.30;;;4.55;;
1753;SDS011;58380;48.312;9.246;2022-07-19T21:27:36;7.97;;;4.32;;
1753;SDS011;58380;48.312;9.246;2022-07-19T21:30:07;9.85;;;4.63;;
1753;SDS011;58380;48.312;9.246;2022-07-19T21:32:37;8.60;;;4.53;;
1753;SDS011;58380;48.312;9.246;2022-07-19T21:35:06;7.35;;;4.38;;
1753;SDS011;58380;48.312;9.246;2022-07-19T21:37:36;9.27;;;4.63;;
1753;SDS011;58380;48.312;9.246;2022-07-19T21:40:08;10.07;;;4.43;;
1753;SDS011;58380;48.312;9.246;2022-07-19T21:42:43;7.95;;;4.65;;
1753;SDS011;58380;48.312;9.246;2022-07-19T21:45:13;6.95;;;4.25;;
